createdAt,value
2023-04-26T00:01:11.174Z,84.33
2023-04-26T00:04:17.358Z,83.62
2023-04-26T00:07:20.390Z,83.19
2023-04-26T00:10:23.208Z,83.76
2023-04-26T00:13:28.928Z,83.12
2023-04-26T00:16:31.790Z,82.90
2023-04-26T00:19:35.037Z,83.56
2023-04-26T00:22:37.962Z,83.25
2023-04-26T00:25:40.678Z,83.87
2023-04-26T00:28:43.396Z,84.16
2023-04-26T00:31:47.086Z,83.24
2023-04-26T00:34:52.690Z,83.42
2023-04-26T00:37:55.396Z,83.81
2023-04-26T00:40:58.278Z,84.22
2023-04-26T00:44:00.970Z,83.96
2023-04-26T00:47:03.803Z,83.58
2023-04-26T00:50:08.242Z,84.04
2023-04-26T00:53:12.296Z,84.08
2023-04-26T00:56:16.890Z,83.79
2023-04-26T00:59:23.037Z,83.80
2023-04-26T01:02:27.584Z,83.72
2023-04-26T01:05:30.433Z,83.91
2023-04-26T01:08:33.119Z,83.79
2023-04-26T01:11:38.917Z,83.67
2023-04-26T01:14:41.698Z,83.98
2023-04-26T01:17:47.342Z,84.58
2023-04-26T01:20:52.316Z,85.13
2023-04-26T01:23:55.055Z,84.46
2023-04-26T01:26:57.969Z,84.69
2023-04-26T01:30:00.649Z,84.92
2023-04-26T01:33:03.433Z,84.43
2023-04-26T01:36:12.368Z,84.79
2023-04-26T01:39:15.009Z,84.90
2023-04-26T01:42:17.969Z,85.01
2023-04-26T01:45:21.129Z,85.00
2023-04-26T01:48:26.831Z,85.42
2023-04-26T01:51:29.566Z,84.73
2023-04-26T01:54:32.167Z,84.99
2023-04-26T01:57:34.918Z,85.20
2023-04-26T02:00:38.097Z,85.87
2023-04-26T02:03:41.406Z,86.04
2023-04-26T02:06:46.994Z,86.48
2023-04-26T02:09:50.072Z,86.67
2023-04-26T02:12:52.695Z,87.17
2023-04-26T02:15:55.691Z,86.85
2023-04-26T02:18:59.663Z,86.94
2023-04-26T02:22:06.688Z,87.05
2023-04-26T02:25:09.580Z,86.80
2023-04-26T02:28:12.394Z,86.76
2023-04-26T02:31:15.069Z,86.77
2023-04-26T02:34:17.892Z,86.37
2023-04-26T02:37:22.332Z,86.51
2023-04-26T02:40:25.207Z,86.35
2023-04-26T02:43:28.034Z,86.10
2023-04-26T02:46:30.881Z,86.02
2023-04-26T02:49:33.769Z,86.21
2023-04-26T02:52:39.751Z,86.02
2023-04-26T02:55:42.370Z,86.01
2023-04-26T02:58:45.264Z,86.15
2023-04-26T03:01:48.064Z,86.56
2023-04-26T03:04:50.978Z,86.11
2023-04-26T03:07:53.729Z,86.35
2023-04-26T03:10:56.419Z,86.35
2023-04-26T03:13:59.093Z,85.80
2023-04-26T03:17:02.324Z,86.45
2023-04-26T03:20:08.260Z,85.89
2023-04-26T03:23:10.980Z,85.83
2023-04-26T03:26:13.691Z,86.33
2023-04-26T03:29:17.761Z,86.20
2023-04-26T03:32:20.410Z,85.78
2023-04-26T03:35:23.205Z,85.56
2023-04-26T03:38:26.300Z,85.94
2023-04-26T03:41:29.000Z,85.67
2023-04-26T03:44:31.767Z,86.02
2023-04-26T03:47:34.514Z,86.09
2023-04-26T03:50:37.435Z,86.05
2023-04-26T03:53:40.792Z,85.65
2023-04-26T03:56:43.410Z,86.51
2023-04-26T03:59:50.301Z,86.47
2023-04-26T04:02:57.551Z,86.35
2023-04-26T04:06:00.338Z,86.62
2023-04-26T04:09:03.056Z,86.39
2023-04-26T04:12:05.967Z,86.57
2023-04-26T04:15:09.333Z,86.41
2023-04-26T04:18:12.192Z,86.82
2023-04-26T04:21:14.926Z,85.74
2023-04-26T04:24:17.615Z,85.91
2023-04-26T04:27:21.490Z,84.79
2023-04-26T04:30:27.593Z,84.37
2023-04-26T04:33:30.349Z,83.69
2023-04-26T04:36:33.999Z,83.01
2023-04-26T04:39:36.711Z,82.74
2023-04-26T04:42:39.424Z,82.29
2023-04-26T04:45:45.182Z,81.52
2023-04-26T04:48:48.824Z,81.12
2023-04-26T04:51:51.854Z,80.87
2023-04-26T04:54:55.265Z,80.31
2023-04-26T04:57:58.024Z,80.30
2023-04-26T05:01:01.506Z,79.00
2023-04-26T05:04:07.806Z,79.61
2023-04-26T05:07:11.100Z,78.17
2023-04-26T05:10:13.933Z,78.08
2023-04-26T05:16:19.665Z,77.11
2023-04-26T05:19:22.414Z,76.70
2023-04-26T05:22:25.214Z,76.80
2023-04-26T05:25:30.854Z,76.54
2023-04-26T05:28:34.596Z,75.92
2023-04-26T05:31:37.433Z,75.61
2023-04-26T05:34:40.129Z,75.16
2023-04-26T05:37:42.868Z,74.30
2023-04-26T05:40:45.649Z,73.23
2023-04-26T05:43:48.389Z,73.10
2023-04-26T05:46:51.250Z,72.67
2023-04-26T05:49:54.126Z,70.84
2023-04-26T05:52:56.758Z,71.87
2023-04-26T05:55:59.402Z,69.64
2023-04-26T05:59:02.410Z,69.01
2023-04-26T06:02:05.674Z,68.79
2023-04-26T06:05:09.259Z,67.76
2023-04-26T06:08:12.305Z,69.05
2023-04-26T06:11:14.983Z,65.72
2023-04-26T06:14:29.539Z,66.46
2023-04-26T06:17:32.967Z,64.67
2023-04-26T06:20:36.295Z,64.30
2023-04-26T06:23:38.962Z,64.58
2023-04-26T06:26:41.583Z,64.47
2023-04-26T06:29:45.363Z,63.50
2023-04-26T06:32:48.425Z,63.40
2023-04-26T06:35:51.807Z,64.42
2023-04-26T06:38:54.944Z,63.47
2023-04-26T06:41:57.790Z,61.17
2023-04-26T06:45:00.656Z,61.24
2023-04-26T06:48:05.057Z,61.12
2023-04-26T06:51:08.735Z,60.16
2023-04-26T06:54:13.007Z,60.10
2023-04-26T06:57:16.028Z,59.43
2023-04-26T07:00:19.209Z,60.26
2023-04-26T07:03:22.045Z,57.02
2023-04-26T07:06:26.445Z,57.16
2023-04-26T07:09:29.166Z,57.57
2023-04-26T07:12:31.971Z,57.19
2023-04-26T07:15:36.652Z,56.62
2023-04-26T07:18:40.959Z,56.87
2023-04-26T07:21:44.199Z,57.47
2023-04-26T07:24:46.936Z,56.29
2023-04-26T07:27:51.819Z,55.48
2023-04-26T07:30:54.497Z,53.94
2023-04-26T07:33:57.458Z,54.40
2023-04-26T07:37:00.506Z,55.42
2023-04-26T07:40:05.131Z,54.05
2023-04-26T07:43:08.170Z,53.63
2023-04-26T07:46:10.881Z,54.93
2023-04-26T07:49:14.081Z,53.81
2023-04-26T07:52:16.819Z,53.33
2023-04-26T07:55:19.421Z,51.67
2023-04-26T07:58:22.410Z,52.84
2023-04-26T08:01:25.089Z,49.75
2023-04-26T08:04:34.429Z,50.57
2023-04-26T08:07:37.449Z,50.96
2023-04-26T08:10:43.200Z,49.68
2023-04-26T08:13:46.509Z,50.81
2023-04-26T08:16:49.294Z,50.36
2023-04-26T08:19:52.132Z,49.60
2023-04-26T08:22:58.412Z,49.70
2023-04-26T08:26:01.140Z,49.14
2023-04-26T08:29:03.986Z,49.30
2023-04-26T08:32:07.382Z,47.27
2023-04-26T08:35:10.551Z,48.58
2023-04-26T08:38:13.290Z,47.18
2023-04-26T08:41:20.160Z,47.63
2023-04-26T08:44:24.673Z,45.97
2023-04-26T08:47:35.987Z,46.36
2023-04-26T08:50:39.572Z,45.03
2023-04-26T08:53:42.544Z,43.27
2023-04-26T08:56:45.645Z,43.60
2023-04-26T08:59:48.963Z,43.78
2023-04-26T09:02:53.404Z,42.39
2023-04-26T09:05:56.833Z,41.90
2023-04-26T09:09:05.177Z,43.29
2023-04-26T09:12:08.795Z,41.36
2023-04-26T09:15:11.968Z,42.64
2023-04-26T09:18:23.001Z,43.40
2023-04-26T09:21:26.026Z,42.73
2023-04-26T09:24:29.462Z,41.77
2023-04-26T09:27:34.284Z,42.08
2023-04-26T09:30:40.156Z,43.82
2023-04-26T09:34:01.544Z,43.38
2023-04-26T09:37:04.232Z,41.81
2023-04-26T09:40:19.725Z,41.57
2023-04-26T09:43:22.854Z,44.11
2023-04-26T09:46:25.515Z,44.32
2023-04-26T09:49:30.933Z,44.77
2023-04-26T09:52:43.589Z,42.45
2023-04-26T09:55:47.501Z,41.01
2023-04-26T09:59:00.952Z,38.88
2023-04-26T10:02:03.996Z,39.51
2023-04-26T10:05:07.710Z,39.81
2023-04-26T10:08:11.813Z,40.20
2023-04-26T10:11:14.564Z,41.40
2023-04-26T10:14:17.484Z,42.41
2023-04-26T10:17:21.187Z,42.60
2023-04-26T10:20:25.221Z,43.52
2023-04-26T10:23:28.236Z,43.29
2023-04-26T10:27:04.317Z,44.10
2023-04-26T10:30:07.959Z,44.01
2023-04-26T10:33:14.119Z,43.90
2023-04-26T10:36:17.384Z,43.73
2023-04-26T10:39:25.156Z,41.93
2023-04-26T10:42:32.460Z,42.17
2023-04-26T10:45:35.514Z,38.94
2023-04-26T10:48:38.348Z,37.50
2023-04-26T10:51:41.136Z,40.48
2023-04-26T10:54:47.386Z,40.56
2023-04-26T10:57:51.925Z,39.46
2023-04-26T11:01:08.692Z,38.72
2023-04-26T11:04:12.790Z,37.66
2023-04-26T11:07:16.311Z,39.92
2023-04-26T11:10:28.258Z,40.25
2023-04-26T11:13:36.386Z,39.39
2023-04-26T11:16:39.163Z,38.51
2023-04-26T11:19:42.193Z,37.71
2023-04-26T11:22:44.950Z,36.81
2023-04-26T11:25:47.667Z,37.09
2023-04-26T11:28:50.981Z,37.75
2023-04-26T11:31:57.429Z,36.59
2023-04-26T11:35:04.292Z,35.62
2023-04-26T11:38:07.690Z,36.10
2023-04-26T11:41:13.698Z,35.51
2023-04-26T11:44:20.889Z,34.57
2023-04-26T11:47:24.250Z,35.71
2023-04-26T11:50:38.847Z,34.51
2023-04-26T11:53:42.929Z,33.26
2023-04-26T11:56:46.350Z,35.21
2023-04-26T11:59:53.960Z,34.10
2023-04-26T12:02:58.360Z,34.21
2023-04-26T12:06:01.623Z,33.99
2023-04-26T12:09:06.103Z,32.72
2023-04-26T12:12:09.219Z,34.44
2023-04-26T12:15:13.906Z,33.65
2023-04-26T12:18:18.877Z,34.46
2023-04-26T12:21:22.223Z,36.00
2023-04-26T12:24:30.695Z,33.92
2023-04-26T12:27:34.280Z,37.46
2023-04-26T12:30:37.006Z,35.72
2023-04-26T12:33:39.846Z,37.58
2023-04-26T12:36:45.129Z,36.87
2023-04-26T12:39:48.162Z,36.43
2023-04-26T12:42:51.492Z,34.23
2023-04-26T12:45:56.952Z,35.57
2023-04-26T12:48:59.746Z,34.88
2023-04-26T12:52:02.473Z,34.99
2023-04-26T12:55:06.636Z,33.54
2023-04-26T12:58:09.448Z,32.33
2023-04-26T13:01:13.410Z,29.72
2023-04-26T13:04:16.325Z,31.41
2023-04-26T13:07:19.100Z,30.70
2023-04-26T13:10:21.956Z,32.27
2023-04-26T13:13:32.166Z,31.18
2023-04-26T13:16:44.091Z,32.19
2023-04-26T13:19:46.974Z,30.77
2023-04-26T13:22:51.450Z,31.31
2023-04-26T13:25:54.182Z,31.13
2023-04-26T13:28:57.346Z,31.19
2023-04-26T13:32:00.464Z,32.95
2023-04-26T13:35:04.679Z,34.83
2023-04-26T13:38:07.522Z,35.73
2023-04-26T13:41:10.662Z,36.36
2023-04-26T13:44:14.404Z,32.67
2023-04-26T13:47:17.878Z,34.23
2023-04-26T13:50:20.750Z,34.52
2023-04-26T13:53:23.434Z,36.33
2023-04-26T13:56:26.414Z,37.60
2023-04-26T13:59:29.227Z,37.77
2023-04-26T14:02:32.240Z,37.77
2023-04-26T14:05:35.099Z,36.60
2023-04-26T14:08:38.562Z,33.68
2023-04-26T14:11:41.383Z,32.90
2023-04-26T14:14:44.166Z,30.35
2023-04-26T14:17:47.230Z,30.91
2023-04-26T14:20:50.167Z,31.62
2023-04-26T14:23:52.907Z,33.64
2023-04-26T14:26:55.610Z,31.39
2023-04-26T14:29:58.427Z,33.72
2023-04-26T14:33:01.544Z,35.41
2023-04-26T14:36:04.549Z,36.58
2023-04-26T14:39:07.580Z,35.70
2023-04-26T14:42:11.582Z,35.99
2023-04-26T14:45:14.678Z,38.33
2023-04-26T14:48:17.945Z,37.51
2023-04-26T14:51:20.940Z,35.50
2023-04-26T14:54:24.089Z,33.28
2023-04-26T14:57:27.292Z,32.18
2023-04-26T15:00:31.120Z,31.29
2023-04-26T15:03:35.916Z,32.10
2023-04-26T15:06:39.217Z,31.16
2023-04-26T15:09:42.096Z,29.60
2023-04-26T15:12:44.925Z,29.25
2023-04-26T15:15:47.637Z,30.89
2023-04-26T15:18:50.387Z,31.54
2023-04-26T15:21:53.126Z,33.69
2023-04-26T15:24:56.005Z,35.57
2023-04-26T15:28:02.719Z,35.55
2023-04-26T15:31:09.173Z,32.68
2023-04-26T15:34:12.960Z,31.93
2023-04-26T15:37:15.958Z,32.36
2023-04-26T15:40:18.755Z,31.86
2023-04-26T15:43:21.634Z,30.05
2023-04-26T15:46:24.429Z,30.72
2023-04-26T15:49:27.843Z,31.03
2023-04-26T15:52:35.629Z,30.53
2023-04-26T15:55:39.867Z,30.63
2023-04-26T15:58:45.290Z,31.32
2023-04-26T16:01:48.098Z,33.42
2023-04-26T16:04:51.018Z,32.85
2023-04-26T16:07:53.890Z,32.88
2023-04-26T16:11:01.010Z,33.69
2023-04-26T16:14:03.904Z,34.66
2023-04-26T16:17:06.856Z,35.70
2023-04-26T16:20:10.511Z,35.81
2023-04-26T16:23:14.247Z,37.39
2023-04-26T16:26:17.020Z,36.49
2023-04-26T16:29:19.717Z,37.37
2023-04-26T16:32:22.949Z,38.17
2023-04-26T16:35:25.759Z,38.35
2023-04-26T16:38:28.378Z,38.63
2023-04-26T16:41:31.105Z,39.18
2023-04-26T16:44:34.135Z,39.56
2023-04-26T16:47:37.039Z,39.48
2023-04-26T16:50:40.849Z,39.62
2023-04-26T16:53:43.752Z,39.65
2023-04-26T16:56:46.726Z,39.57
2023-04-26T16:59:49.841Z,40.52
2023-04-26T17:02:53.154Z,41.66
2023-04-26T17:05:56.248Z,42.20
2023-04-26T17:08:59.446Z,41.92
2023-04-26T17:12:02.835Z,43.04
2023-04-26T17:15:07.175Z,42.57
2023-04-26T17:18:10.256Z,44.58
2023-04-26T17:21:13.089Z,43.25
2023-04-26T17:24:16.744Z,43.52
2023-04-26T17:27:19.832Z,43.83
2023-04-26T17:30:23.194Z,45.27
2023-04-26T17:33:26.241Z,46.04
2023-04-26T17:36:29.097Z,45.23
2023-04-26T17:39:31.851Z,45.37
2023-04-26T17:42:35.786Z,45.90
2023-04-26T17:45:38.897Z,47.12
2023-04-26T17:48:42.069Z,49.53
2023-04-26T17:51:45.300Z,49.77
2023-04-26T17:54:48.105Z,51.13
2023-04-26T17:57:51.259Z,51.38
2023-04-26T18:00:54.344Z,52.93
2023-04-26T18:03:57.818Z,54.74
2023-04-26T18:07:01.535Z,54.38
2023-04-26T18:10:04.629Z,56.62
2023-04-26T18:13:08.174Z,56.80
2023-04-26T18:16:12.822Z,56.95
2023-04-26T18:19:16.429Z,58.20
2023-04-26T18:22:19.661Z,59.14
2023-04-26T18:25:22.706Z,59.96
2023-04-26T18:28:27.022Z,59.62
2023-04-26T18:31:32.467Z,60.46
2023-04-26T18:34:36.189Z,60.37
2023-04-26T18:37:39.964Z,61.28
2023-04-26T18:40:46.739Z,62.97
2023-04-26T18:43:54.347Z,62.87
2023-04-26T18:46:57.764Z,63.97
2023-04-26T18:50:00.943Z,65.83
2023-04-26T18:53:03.877Z,65.61
2023-04-26T18:56:07.029Z,66.68
2023-04-26T18:59:10.238Z,66.38
2023-04-26T19:02:13.674Z,66.88
2023-04-26T19:05:16.661Z,70.47
2023-04-26T19:08:19.833Z,70.09
2023-04-26T19:11:25.040Z,69.34
2023-04-26T19:14:28.186Z,70.26
2023-04-26T19:17:33.557Z,71.05
2023-04-26T19:20:38.066Z,72.26
2023-04-26T19:23:41.707Z,72.02
2023-04-26T19:26:47.833Z,74.64
2023-04-26T19:29:50.795Z,73.48
2023-04-26T19:32:54.476Z,73.31
2023-04-26T19:35:57.724Z,72.41
2023-04-26T19:39:00.873Z,73.09
2023-04-26T19:42:04.195Z,72.83
2023-04-26T19:45:07.666Z,74.27
2023-04-26T19:48:11.253Z,75.76
2023-04-26T19:51:17.818Z,76.03
2023-04-26T19:54:20.692Z,75.49
2023-04-26T19:57:23.472Z,76.48
2023-04-26T20:00:26.645Z,76.86
2023-04-26T20:03:30.772Z,78.40
2023-04-26T20:06:33.807Z,78.43
2023-04-26T20:09:37.328Z,78.62
2023-04-26T20:12:42.155Z,79.03
2023-04-26T20:15:45.109Z,78.10
2023-04-26T20:18:48.367Z,76.25
2023-04-26T20:21:51.551Z,78.79
2023-04-26T20:24:54.903Z,78.69
2023-04-26T20:27:57.915Z,79.39
2023-04-26T20:31:00.901Z,81.11
2023-04-26T20:34:03.746Z,81.73
2023-04-26T20:37:06.383Z,82.67
2023-04-26T20:40:09.702Z,82.64
2023-04-26T20:43:16.333Z,82.86
2023-04-26T20:46:19.164Z,81.94
2023-04-26T20:49:22.115Z,83.69
2023-04-26T20:52:25.788Z,83.94
2023-04-26T20:55:28.384Z,83.46
2023-04-26T20:58:31.175Z,86.34
2023-04-26T21:01:34.668Z,84.35
2023-04-26T21:04:38.928Z,83.80
2023-04-26T21:07:41.925Z,83.78
2023-04-26T21:10:46.621Z,84.23
2023-04-26T21:13:49.623Z,84.95
2023-04-26T21:16:52.354Z,85.80
2023-04-26T21:19:55.121Z,86.39
2023-04-26T21:22:57.923Z,86.28
2023-04-26T21:26:00.590Z,85.74
2023-04-26T21:29:06.948Z,85.96
2023-04-26T21:32:09.946Z,85.10
2023-04-26T21:35:13.277Z,85.33
2023-04-26T21:38:16.156Z,86.17
2023-04-26T21:41:18.906Z,86.07
2023-04-26T21:44:21.652Z,86.49
2023-04-26T21:47:24.323Z,86.69
2023-04-26T21:50:27.286Z,86.83
2023-04-26T21:53:29.965Z,87.93
2023-04-26T21:56:36.049Z,87.37
2023-04-26T21:59:42.265Z,87.38
2023-04-26T22:02:48.073Z,87.25
2023-04-26T22:05:50.810Z,86.89
2023-04-26T22:08:53.571Z,87.38
2023-04-26T22:11:56.348Z,87.98
2023-04-26T22:14:59.453Z,87.60
2023-04-26T22:18:02.336Z,88.00
2023-04-26T22:21:08.224Z,89.25
2023-04-26T22:24:10.942Z,89.28
2023-04-26T22:27:13.634Z,89.41
2023-04-26T22:30:25.505Z,89.99
2023-04-26T22:33:32.016Z,89.61
2023-04-26T22:36:35.681Z,90.26
2023-04-26T22:39:38.373Z,90.94
2023-04-26T22:42:41.491Z,90.82
2023-04-26T22:45:44.259Z,90.75
2023-04-26T22:48:49.993Z,91.53
2023-04-26T22:52:04.322Z,91.81
2023-04-26T22:55:10.543Z,91.64
2023-04-26T22:58:13.273Z,91.34
2023-04-26T23:01:15.897Z,91.97
2023-04-26T23:04:21.905Z,91.41
2023-04-26T23:07:24.614Z,90.89
2023-04-26T23:10:27.539Z,90.92
2023-04-26T23:13:30.492Z,91.04
2023-04-26T23:16:36.665Z,91.41
2023-04-26T23:19:39.526Z,92.30
2023-04-26T23:22:43.075Z,93.90
2023-04-26T23:25:46.268Z,94.78
2023-04-26T23:28:49.212Z,93.70
2023-04-26T23:31:52.285Z,92.63
2023-04-26T23:34:55.794Z,92.48
2023-04-26T23:37:58.517Z,92.31
2023-04-26T23:41:01.131Z,91.94
2023-04-26T23:44:03.967Z,91.97
2023-04-26T23:47:07.849Z,92.55
2023-04-26T23:50:10.787Z,91.84
2023-04-26T23:53:13.532Z,92.29
2023-04-26T23:56:16.300Z,93.05
2023-04-26T23:59:19.018Z,93.55
